Time;durP1;ratioP1;P1;durP2;ratioP2;P2;SDS_P1;SDS_P2;PMS_P1;PMS_P2;Temp;Humidity;BMP_temperature;BMP_pressure;BME280_temperature;BME280_humidity;BME280_pressure;Samples;Min_cycle;Max_cycle;Signal;HPM_P1;HPM_P2
2022/09/27 00:00:57;;;;;;;1.70;0.80;;;;;;;19.77;33.47;99907.31;4718661;30;20052;-84
2022/09/27 00:03:23;;;;;;;1.23;0.77;;;;;;;19.95;33.42;99941.31;4736065;30;20075;-84
2022/09/27 00:05:48;;;;;;;1.42;0.65;;;;;;;19.74;33.38;99909.72;4726911;30;20546;-84
2022/09/27 00:08:14;;;;;;;1.08;0.80;;;;;;;19.95;33.42;99943.22;4731411;30;20074;-83
2022/09/27 00:10:40;;;;;;;2.13;0.80;;;;;;;19.50;33.27;99866.69;4725513;30;20503;-84
2022/09/27 00:13:06;;;;;;;1.30;0.95;;;;;;;19.67;33.38;99897.19;4726323;30;20481;-84
2022/09/27 00:15:33;;;;;;;0.88;0.70;;;;;;;19.94;33.36;99937.00;4723120;30;20122;-84
2022/09/27 00:17:59;;;;;;;1.30;0.70;;;;;;;19.79;33.23;99910.59;4724084;30;20040;-84
2022/09/27 00:20:27;;;;;;;1.00;0.75;;;;;;;19.92;33.44;99936.44;4731569;30;20116;-84
2022/09/27 00:22:52;;;;;;;0.70;0.68;;;;;;;19.67;33.33;99899.09;4744736;30;20312;-84
2022/09/27 00:25:18;;;;;;;2.05;0.70;;;;;;;19.74;33.42;99913.25;4741447;30;20473;-84
2022/09/27 00:27:44;;;;;;;0.60;0.60;;;;;;;19.88;33.34;99924.47;4746592;30;20142;-84
2022/09/27 00:30:10;;;;;;;0.70;0.70;;;;;;;19.90;33.20;99927.72;4739872;30;20035;-84
2022/09/27 00:32:36;;;;;;;1.00;0.63;;;;;;;19.85;33.19;99914.13;4734901;30;20509;-84
2022/09/27 00:35:01;;;;;;;1.20;0.77;;;;;;;19.83;33.20;99913.59;4728881;30;20031;-84
2022/09/27 00:37:27;;;;;;;1.25;0.85;;;;;;;19.87;33.34;99922.84;4745276;30;20119;-84
2022/09/27 00:39:55;;;;;;;0.80;0.70;;;;;;;19.90;33.16;99925.03;4735101;30;20170;-84
2022/09/27 00:42:23;;;;;;;0.95;0.82;;;;;;;19.72;33.12;99898.31;4724149;30;20042;-84
2022/09/27 00:45:16;;;;;;;0.60;0.60;;;;;;;19.85;33.00;99914.13;4749775;30;20040;-84
2022/09/27 00:47:47;;;;;;;1.48;0.80;;;;;;;19.91;33.24;99926.66;4751559;30;20058;-84
2022/09/27 00:50:29;;;;;;;1.13;0.75;;;;;;;19.77;32.97;99895.66;4744558;30;20059;-84
2022/09/27 00:53:15;;;;;;;0.80;0.60;;;;;;;19.83;32.92;99913.59;4720842;30;20032;-84
2022/09/27 00:55:48;;;;;;;1.15;0.80;;;;;;;19.84;33.01;99923.38;4757557;30;20073;-84
2022/09/27 00:58:14;;;;;;;0.70;0.70;;;;;;;19.73;32.97;99891.78;4725750;30;20032;-84
2022/09/27 01:00:43;;;;;;;1.25;0.70;;;;;;;19.79;32.99;99898.94;4757195;30;20118;-84
2022/09/27 01:03:10;;;;;;;1.02;0.80;;;;;;;19.98;32.96;99927.25;4732645;30;20117;-84
2022/09/27 01:05:35;;;;;;;2.20;0.80;;;;;;;19.69;32.96;99884.19;4723524;30;20506;-84
2022/09/27 01:08:01;;;;;;;0.93;0.70;;;;;;;19.82;32.99;99898.41;4745633;30;20047;-84
2022/09/27 01:10:37;;;;;;;0.75;0.75;;;;;;;19.82;32.83;99898.41;4725960;30;20035;-84
2022/09/27 01:13:29;;;;;;;0.80;0.80;;;;;;;20.02;32.71;99939.22;4746978;30;20036;-84
2022/09/27 01:16:03;;;;;;;0.60;0.60;;;;;;;19.77;32.89;99895.66;4758360;30;20112;-84
2022/09/27 01:18:34;;;;;;;1.00;0.60;;;;;;;19.73;32.61;99884.50;4743356;30;20035;-84
2022/09/27 01:21:18;;;;;;;1.15;0.80;;;;;;;20.00;32.77;99933.22;4746365;30;20042;-84
2022/09/27 01:23:56;;;;;;;1.10;0.80;;;;;;;19.99;32.77;99931.63;4740296;30;20062;-84
2022/09/27 01:26:46;;;;;;;0.90;0.75;;;;;;;20.04;32.71;99928.09;4745875;30;20027;-84
2022/09/27 01:29:16;;;;;;;1.08;0.60;;;;;;;19.81;32.55;99899.47;4759508;30;20032;-84
2022/09/27 01:32:06;;;;;;;0.93;0.93;;;;;;;19.86;32.58;99902.22;4745226;30;20096;-84
2022/09/27 01:34:40;;;;;;;1.20;0.80;;;;;;;20.04;32.63;99928.94;4731234;30;20035;-84
2022/09/27 01:37:18;;;;;;;2.75;0.63;;;;;;;19.94;32.66;99903.63;4742178;30;20027;-83
2022/09/27 01:40:00;;;;;;;0.65;0.63;;;;;;;19.86;32.57;99916.59;4758186;30;20044;-84
2022/09/27 01:42:32;;;;;;;1.27;0.90;;;;;;;20.02;32.53;99931.09;4743339;30;20032;-84
2022/09/27 01:45:13;;;;;;;0.90;0.80;;;;;;;19.99;32.66;99926.19;4758736;30;20122;-84
2022/09/27 01:47:48;;;;;;;0.90;0.80;;;;;;;19.84;32.44;99907.91;4753954;30;20032;-83
2022/09/27 01:50:17;;;;;;;1.40;1.00;;;;;;;19.90;32.58;99922.31;4757276;30;20031;-84
2022/09/27 01:52:56;;;;;;;0.82;0.82;;;;;;;19.79;32.63;99904.34;4728995;30;20071;-84
2022/09/27 01:55:23;;;;;;;1.17;0.77;;;;;;;19.80;32.54;99914.09;4745676;30;20108;-83
2022/09/27 01:58:02;;;;;;;2.20;0.98;;;;;;;19.83;32.52;99914.44;4741776;30;20035;-84
2022/09/27 02:00:28;;;;;;;0.63;0.60;;;;;;;19.94;32.66;99926.16;4721152;30;20104;-84
2022/09/27 02:03:03;;;;;;;1.00;0.70;;;;;;;19.77;32.61;99901.91;4728880;30;20506;-83
2022/09/27 02:05:32;;;;;;;0.90;0.70;;;;;;;19.97;32.59;99939.19;4723231;30;20068;-84
2022/09/27 02:08:00;;;;;;;0.60;0.57;;;;;;;19.78;32.51;99902.72;4728816;30;20375;-84
2022/09/27 02:10:38;;;;;;;1.55;0.80;;;;;;;19.81;32.64;99923.88;4745839;30;20654;-84
2022/09/27 02:13:24;;;;;;;0.80;0.73;;;;;;;19.91;32.62;99932.09;4730895;30;20047;-84
2022/09/27 02:16:18;;;;;;;1.23;0.95;;;;;;;19.86;32.65;99923.91;4735520;30;20028;-84
2022/09/27 02:19:01;;;;;;;0.73;0.70;;;;;;;19.80;32.73;99911.38;4739955;30;20043;-84
2022/09/27 02:21:32;;;;;;;1.08;0.82;;;;;;;19.81;32.56;99919.28;4728969;30;20242;-84
2022/09/27 02:23:58;;;;;;;0.77;0.70;;;;;;;19.96;32.52;99950.31;4742839;30;20036;-84
2022/09/27 02:26:41;;;;;;;0.70;0.70;;;;;;;19.78;32.64;99911.69;4727742;30;20100;-84
2022/09/27 02:29:08;;;;;;;0.70;0.70;;;;;;;19.70;32.60;99907.50;4745043;30;20386;-83
2022/09/27 02:31:33;;;;;;;1.13;0.70;;;;;;;19.86;32.78;99938.28;4738282;30;20547;-83
2022/09/27 02:34:12;;;;;;;1.02;0.80;;;;;;;19.95;32.63;99962.22;4726507;30;20035;-84
2022/09/27 02:36:38;;;;;;;0.82;0.70;;;;;;;19.75;32.68;99924.91;4734029;30;20031;-83
2022/09/27 02:39:04;;;;;;;0.80;0.70;;;;;;;19.80;32.75;99933.09;4724555;30;20088;-83
2022/09/27 02:41:29;;;;;;;0.73;0.73;;;;;;;19.80;32.78;99924.94;4720778;30;20047;-83
2022/09/27 02:44:00;;;;;;;0.60;0.60;;;;;;;19.66;32.50;99906.41;4718264;30;20066;-83
2022/09/27 02:46:58;;;;;;;0.77;0.73;;;;;;;19.92;32.81;99941.88;4740589;30;20043;-83
2022/09/27 02:49:55;;;;;;;0.80;0.70;;;;;;;19.93;32.68;99948.09;4751414;30;20040;-83
2022/09/27 02:52:41;;;;;;;0.80;0.73;;;;;;;19.83;32.72;99933.41;4755487;30;20185;-83
2022/09/27 02:55:49;;;;;;;1.08;0.70;;;;;;;19.89;32.76;99942.38;4753559;30;20035;-83
2022/09/27 02:58:30;;;;;;;0.60;0.60;;;;;;;19.84;32.90;99937.72;4703135;30;20108;-83
2022/09/27 03:01:23;;;;;;;1.08;0.70;;;;;;;19.89;32.76;99953.22;4696578;30;20066;-84
2022/09/27 03:03:52;;;;;;;0.73;0.70;;;;;;;19.71;32.77;99924.59;4733679;30;20059;-83
2022/09/27 03:06:19;;;;;;;1.10;0.70;;;;;;;19.61;32.81;99917.22;4729220;30;20036;-84
2022/09/27 03:08:44;;;;;;;1.05;0.65;;;;;;;19.77;32.76;99942.56;4734723;30;20040;-84
2022/09/27 03:11:10;;;;;;;0.85;0.60;;;;;;;19.59;32.85;99902.25;4729087;30;20044;-83
2022/09/27 03:13:37;;;;;;;0.73;0.60;;;;;;;19.91;32.56;99961.13;4726214;30;20494;-83
2022/09/27 03:16:04;;;;;;;0.88;0.82;;;;;;;19.49;32.78;99894.91;4742868;30;20558;-84
2022/09/27 03:18:31;;;;;;;0.60;0.60;;;;;;;19.78;32.75;99935.25;4732388;30;20036;-83
2022/09/27 03:20:56;;;;;;;0.77;0.77;;;;;;;19.66;32.69;99913.69;4732106;30;20139;-83
2022/09/27 03:23:22;;;;;;;0.60;0.60;;;;;;;19.72;32.62;99925.41;4732079;30;20127;-83
2022/09/27 03:25:48;;;;;;;0.80;0.75;;;;;;;19.75;32.59;99928.47;4726490;30;20040;-83
2022/09/27 03:28:14;;;;;;;0.60;0.60;;;;;;;19.72;32.81;99926.22;4735654;30;20067;-83
2022/09/27 03:30:40;;;;;;;0.65;0.57;;;;;;;19.57;32.83;99902.53;4721765;30;20517;-83
2022/09/27 03:33:08;;;;;;;0.93;0.60;;;;;;;19.60;32.72;99915.56;4725174;30;20043;-83
2022/09/27 03:35:34;;;;;;;0.55;0.52;;;;;;;19.77;32.71;99949.88;4724327;30;20035;-83
2022/09/27 03:37:59;;;;;;;0.60;0.60;;;;;;;19.63;32.71;99920.47;4723775;30;20061;-83
2022/09/27 03:40:25;;;;;;;0.93;0.60;;;;;;;19.62;32.59;99926.16;4734015;30;20403;-83
2022/09/27 03:42:51;;;;;;;0.50;0.50;;;;;;;19.66;32.72;99932.69;4745230;30;20039;-83
2022/09/27 03:45:17;;;;;;;0.65;0.60;;;;;;;19.74;32.68;99942.25;4723181;30;20395;-83
2022/09/27 03:47:42;;;;;;;0.60;0.60;;;;;;;19.64;32.62;99935.63;4724165;30;20039;-82
2022/09/27 03:50:09;;;;;;;1.85;0.63;;;;;;;19.70;32.63;99940.03;4738222;30;20163;-83
2022/09/27 03:52:34;;;;;;;0.55;0.55;;;;;;;19.67;32.79;99943.25;4727154;30;20035;-82
2022/09/27 03:55:00;;;;;;;0.55;0.50;;;;;;;19.65;32.78;99945.41;4740757;30;20051;-83
2022/09/27 03:57:26;;;;;;;0.90;0.70;;;;;;;19.68;32.66;99958.47;4723758;30;20040;-83
2022/09/27 03:59:54;;;;;;;0.55;0.52;;;;;;;19.82;32.84;99974.34;4724772;30;20126;-82
2022/09/27 04:02:20;;;;;;;0.93;0.70;;;;;;;19.58;32.96;99931.28;4730649;30;20050;-83
2022/09/27 04:04:47;;;;;;;0.65;0.63;;;;;;;19.74;32.78;99958.50;4722798;30;20035;-83
2022/09/27 04:07:13;;;;;;;0.60;0.60;;;;;;;19.62;32.83;99937.81;4730754;30;20122;-83
2022/09/27 04:09:40;;;;;;;0.40;0.40;;;;;;;19.65;32.81;99942.72;4730072;30;20130;-83
2022/09/27 04:12:06;;;;;;;0.68;0.60;;;;;;;19.72;32.69;99937.06;4729103;30;20385;-83
2022/09/27 04:14:32;;;;;;;0.60;0.55;;;;;;;19.85;32.67;99962.94;4723274;30;20035;-82
2022/09/27 04:16:58;;;;;;;0.60;0.60;;;;;;;19.70;32.58;99940.03;4720862;30;20058;-83
2022/09/27 04:19:24;;;;;;;0.60;0.52;;;;;;;19.77;32.60;99956.13;4720365;30;20063;-82
2022/09/27 04:21:49;;;;;;;0.80;0.80;;;;;;;19.74;32.52;99951.22;4750143;30;20118;-83
2022/09/27 04:24:17;;;;;;;0.68;0.60;;;;;;;19.63;32.45;99931.31;4749275;30;20459;-83
2022/09/27 04:26:45;;;;;;;0.65;0.60;;;;;;;19.86;32.53;99959.16;4730768;30;20593;-82
2022/09/27 04:29:14;;;;;;;0.40;0.40;;;;;;;19.66;32.41;99938.94;4720078;30;20422;-83
2022/09/27 04:31:40;;;;;;;0.90;0.75;;;;;;;19.70;32.51;99945.47;4729174;30;20069;-83
2022/09/27 04:34:08;;;;;;;0.50;0.50;;;;;;;19.68;32.36;99941.41;4720829;30;20128;-83
2022/09/27 04:36:33;;;;;;;0.65;0.65;;;;;;;19.55;32.53;99922.84;4725783;30;20111;-83
2022/09/27 04:39:00;;;;;;;0.50;0.50;;;;;;;19.55;32.41;99920.94;4722861;30;20605;-83
2022/09/27 04:41:27;;;;;;;0.70;0.68;;;;;;;19.84;32.40;99961.34;4734973;30;20027;-83
2022/09/27 04:43:55;;;;;;;0.70;0.70;;;;;;;19.89;32.40;99970.31;4735459;30;20039;-82
2022/09/27 04:46:23;;;;;;;0.60;0.60;;;;;;;19.88;32.20;99967.84;4749502;30;20043;-83
2022/09/27 04:48:49;;;;;;;0.60;0.50;;;;;;;19.79;32.58;99951.25;4741273;30;20521;-82
2022/09/27 04:51:16;;;;;;;0.52;0.52;;;;;;;19.81;32.37;99951.81;4732344;30;20027;-83
2022/09/27 04:53:45;;;;;;;0.50;0.50;;;;;;;19.81;32.36;99956.41;4726361;30;20040;-83
2022/09/27 04:56:11;;;;;;;0.70;0.70;;;;;;;19.58;32.31;99928.56;4731912;30;20502;-82
2022/09/27 04:58:37;;;;;;;0.70;0.70;;;;;;;19.60;32.44;99937.25;4719401;30;20043;-83
2022/09/27 05:01:03;;;;;;;0.52;0.52;;;;;;;19.62;32.14;99947.84;4727245;30;20391;-82
2022/09/27 05:03:32;;;;;;;1.05;0.50;;;;;;;19.79;32.30;99970.22;4724174;30;20028;-82
2022/09/27 05:05:59;;;;;;;1.75;0.43;;;;;;;19.63;32.36;99955.72;4737110;30;20042;-82
2022/09/27 05:08:27;;;;;;;0.50;0.50;;;;;;;19.76;32.46;99973.47;4724299;30;20495;-82
2022/09/27 05:10:56;;;;;;;1.15;0.50;;;;;;;19.69;32.44;99962.78;4727264;30;20063;-83
2022/09/27 05:13:22;;;;;;;0.47;0.47;;;;;;;19.74;32.50;99972.06;4737480;30;20036;-82
2022/09/27 05:15:51;;;;;;;0.60;0.60;;;;;;;19.74;32.65;99972.91;4726986;30;20050;-83
2022/09/27 05:18:19;;;;;;;0.40;0.40;;;;;;;19.75;32.62;99979.97;4720684;30;20147;-82
2022/09/27 05:20:45;;;;;;;0.70;0.60;;;;;;;19.52;32.72;99937.72;4733257;30;20042;-82
2022/09/27 05:23:11;;;;;;;0.63;0.60;;;;;;;19.70;32.61;99972.56;4731828;30;20032;-82
2022/09/27 05:25:39;;;;;;;0.93;0.50;;;;;;;19.57;32.68;99940.47;4726766;30;20517;-82
2022/09/27 05:28:05;;;;;;;0.50;0.50;;;;;;;19.75;32.68;99979.13;4734323;30;20551;-82
2022/09/27 05:30:30;;;;;;;0.55;0.50;;;;;;;19.61;32.77;99940.75;4741417;30;20043;-82
2022/09/27 05:32:56;;;;;;;1.20;0.50;;;;;;;19.62;32.89;99948.63;4724434;30;20534;-82
2022/09/27 05:35:21;;;;;;;1.42;0.77;;;;;;;19.55;32.85;99945.34;4725471;30;20443;-82
2022/09/27 05:37:54;;;;;;;0.60;0.60;;;;;;;19.61;32.83;99963.28;4730588;30;20120;-82
2022/09/27 05:40:23;;;;;;;0.50;0.50;;;;;;;19.51;32.76;99941.50;4745168;30;20043;-83
2022/09/27 05:42:50;;;;;;;0.57;0.50;;;;;;;19.70;32.93;99972.56;4724120;30;20040;-83
2022/09/27 05:45:16;;;;;;;0.50;0.50;;;;;;;19.73;32.95;99982.09;4725488;30;20042;-82
2022/09/27 05:47:41;;;;;;;0.60;0.60;;;;;;;19.63;32.96;99963.84;4722070;30;20078;-82
2022/09/27 05:50:08;;;;;;;1.27;0.43;;;;;;;19.50;32.99;99935.25;4746166;30;20506;-83
2022/09/27 05:52:34;;;;;;;0.50;0.50;;;;;;;19.70;32.99;99982.59;4732877;30;20103;-82
2022/09/27 05:55:02;;;;;;;0.50;0.50;;;;;;;19.48;33.07;99942.84;4726621;30;20019;-82
2022/09/27 05:57:27;;;;;;;0.40;0.40;;;;;;;19.51;33.15;99945.03;4722751;30;21277;-83
2022/09/27 05:59:53;;;;;;;1.08;0.50;;;;;;;19.59;32.96;99961.91;4720051;30;20119;-82
2022/09/27 06:02:18;;;;;;;1.38;0.40;;;;;;;19.73;33.29;99981.25;4733651;30;20509;-83
2022/09/27 06:04:45;;;;;;;0.82;0.40;;;;;;;19.69;33.02;99980.97;4732965;30;20529;-83
2022/09/27 06:07:10;;;;;;;0.50;0.50;;;;;;;19.34;33.02;99930.78;4726834;30;20071;-82
2022/09/27 06:09:38;;;;;;;0.60;0.60;;;;;;;19.44;32.98;99946.34;4725753;30;20177;-83
2022/09/27 06:12:04;;;;;;;0.43;0.38;;;;;;;19.57;33.06;99964.84;4725149;30;20048;-82
2022/09/27 06:14:30;;;;;;;0.52;0.50;;;;;;;19.65;33.11;99987.97;4731127;30;20556;-83
2022/09/27 06:16:55;;;;;;;0.73;0.55;;;;;;;19.37;33.30;99934.88;4723181;30;20139;-83
2022/09/27 06:19:21;;;;;;;0.50;0.40;;;;;;;19.48;33.24;99971.84;4725944;30;20167;-83
2022/09/27 06:21:52;;;;;;;0.88;0.70;;;;;;;19.68;33.00;100003.75;4721336;30;20494;-83
2022/09/27 06:24:17;;;;;;;0.50;0.50;;;;;;;19.44;33.20;99970.72;4734454;30;20028;-83
2022/09/27 06:26:43;;;;;;;0.50;0.50;;;;;;;19.54;33.32;99976.25;4729658;30;20586;-82
2022/09/27 06:29:11;;;;;;;0.60;0.60;;;;;;;19.41;33.29;99946.84;4729016;30;20039;-82
2022/09/27 06:31:37;;;;;;;1.75;0.50;;;;;;;19.60;33.17;99986.03;4742501;30;20032;-82
2022/09/27 06:34:06;;;;;;;0.63;0.63;;;;;;;19.59;33.34;99995.25;4727143;30;20119;-82
2022/09/27 06:36:32;;;;;;;0.52;0.52;;;;;;;19.50;33.27;99977.81;4740359;30;20038;-83
2022/09/27 06:39:00;;;;;;;0.60;0.60;;;;;;;19.63;33.22;99992.84;4735645;30;20150;-83
2022/09/27 06:41:28;;;;;;;1.35;0.60;;;;;;;19.45;33.39;99970.44;4730535;30;20035;-83
2022/09/27 06:43:55;;;;;;;1.17;0.57;;;;;;;19.62;33.30;99996.63;4729615;30;20398;-82
2022/09/27 06:46:26;;;;;;;0.50;0.43;;;;;;;19.62;33.44;99994.72;4739275;30;20470;-82
2022/09/27 06:49:00;;;;;;;0.75;0.63;;;;;;;19.58;33.36;99993.63;4730496;30;20027;-82
2022/09/27 06:51:25;;;;;;;1.15;0.50;;;;;;;19.56;33.72;100001.19;4726178;30;20043;-82
2022/09/27 06:53:51;;;;;;;2.17;0.57;;;;;;;19.64;33.52;100010.72;4728294;30;20042;-83
2022/09/27 06:56:17;;;;;;;0.85;0.68;;;;;;;19.38;33.56;99964.41;4730288;30;20664;-83
2022/09/27 07:01:28;;;;;;;0.43;0.43;;;;;;;19.54;33.51;99999.78;4740837;30;20101;-83
2022/09/27 07:03:57;;;;;;;0.80;0.50;;;;;;;19.59;33.66;99994.41;4734040;30;20042;-82
2022/09/27 07:06:23;;;;;;;0.50;0.50;;;;;;;19.54;33.59;99995.22;4728155;30;20045;-83
2022/09/27 07:08:51;;;;;;;0.60;0.60;;;;;;;19.49;33.54;99995.16;4734469;30;20042;-82
2022/09/27 07:11:17;;;;;;;0.47;0.47;;;;;;;19.65;33.54;100026.75;4733851;30;20032;-82
2022/09/27 07:13:42;;;;;;;0.50;0.50;;;;;;;19.47;33.61;99994.56;4732273;30;20258;-82
2022/09/27 07:16:14;;;;;;;2.17;0.52;;;;;;;19.43;33.57;100005.13;4730129;30;20031;-82
2022/09/27 07:18:40;;;;;;;0.70;0.68;;;;;;;19.62;33.75;100029.16;4727354;30;20044;-83
2022/09/27 07:21:07;;;;;;;1.63;0.57;;;;;;;19.52;33.73;100019.84;4746322;30;20050;-83
2022/09/27 07:23:34;;;;;;;1.77;0.70;;;;;;;19.44;33.56;100004.06;4727553;30;20130;-83
2022/09/27 07:26:03;;;;;;;0.50;0.50;;;;;;;19.72;33.56;100039.28;4731933;30;20101;-83
2022/09/27 07:28:28;;;;;;;0.60;0.50;;;;;;;19.42;33.57;99989.94;4726443;30;20028;-83
2022/09/27 07:30:55;;;;;;;0.60;0.50;;;;;;;19.60;33.56;100018.56;4723832;30;20050;-83
2022/09/27 07:33:21;;;;;;;0.50;0.50;;;;;;;19.65;33.31;100026.75;4730015;30;20031;-83
2022/09/27 07:35:48;;;;;;;0.50;0.50;;;;;;;19.74;33.64;100047.97;4725991;30;20031;-84
2022/09/27 07:38:15;;;;;;;0.63;0.50;;;;;;;19.70;33.41;100036.81;4750191;30;20543;-83
2022/09/27 07:40:43;;;;;;;0.93;0.50;;;;;;;19.59;33.45;100029.66;4726174;30;20549;-83
2022/09/27 07:43:08;;;;;;;0.50;0.50;;;;;;;19.55;33.70;100018.50;4720577;30;20058;-83
2022/09/27 07:45:37;;;;;;;0.52;0.52;;;;;;;19.45;33.54;99996.72;4727749;30;20508;-83
2022/09/27 07:48:05;;;;;;;0.82;0.43;;;;;;;19.66;33.44;100033.81;4736677;30;20047;-84
2022/09/27 07:50:30;;;;;;;0.40;0.40;;;;;;;19.57;33.24;100019.06;4746530;30;20035;-84
2022/09/27 07:52:56;;;;;;;2.40;0.77;;;;;;;19.65;33.45;100048.44;4732929;30;20030;-84
2022/09/27 07:55:23;;;;;;;0.40;0.40;;;;;;;19.50;33.38;100013.03;4735942;30;20158;-84
2022/09/27 07:57:48;;;;;;;0.88;0.70;;;;;;;19.49;33.38;100016.84;4732240;30;20211;-84
2022/09/27 08:00:16;;;;;;;0.73;0.50;;;;;;;19.33;33.57;99994.16;4723940;30;20042;-83
2022/09/27 08:02:42;;;;;;;0.45;0.40;;;;;;;19.69;33.45;100054.16;4734442;30;20056;-84
2022/09/27 08:05:08;;;;;;;0.52;0.50;;;;;;;19.33;33.66;100002.28;4749734;30;20036;-84
2022/09/27 08:07:37;;;;;;;0.43;0.43;;;;;;;19.41;33.44;100009.16;4742588;30;20640;-83
2022/09/27 08:10:03;;;;;;;0.43;0.43;;;;;;;19.66;33.45;100057.38;4736683;30;20043;-83
2022/09/27 08:12:29;;;;;;;0.50;0.50;;;;;;;19.55;33.29;100037.47;4721944;30;20035;-83
2022/09/27 08:15:00;;;;;;;0.50;0.50;;;;;;;19.60;33.46;100051.09;4723413;30;20478;-83
2022/09/27 08:17:26;;;;;;;0.50;0.50;;;;;;;19.56;33.55;100055.41;4725645;30;20122;-83
2022/09/27 08:19:52;;;;;;;0.50;0.47;;;;;;;19.62;33.43;100062.50;4726596;30;20040;-83
2022/09/27 08:22:20;;;;;;;2.15;0.60;;;;;;;19.52;33.62;100030.69;4722027;30;20032;-83
2022/09/27 08:24:46;;;;;;;0.40;0.40;;;;;;;19.52;33.54;100038.00;4720158;30;20035;-83
2022/09/27 08:27:13;;;;;;;0.77;0.50;;;;;;;19.32;33.57;100012.31;4732692;30;20058;-83
2022/09/27 08:29:40;;;;;;;0.50;0.50;;;;;;;19.43;33.49;100020.56;4726842;30;20135;-83
2022/09/27 08:32:11;;;;;;;2.85;0.60;;;;;;;19.46;33.40;100020.06;4730122;30;20093;-83
2022/09/27 08:34:42;;;;;;;0.82;0.47;;;;;;;19.31;33.90;100001.75;4727143;30;20031;-83
2022/09/27 08:37:08;;;;;;;0.50;0.50;;;;;;;19.20;33.66;99998.13;4727447;30;20034;-83
2022/09/27 08:39:33;;;;;;;0.52;0.52;;;;;;;19.73;33.56;100085.13;4728998;30;20062;-84
2022/09/27 08:42:35;;;;;;;1.58;0.50;;;;;;;19.75;33.76;100074.88;4725063;30;20200;-84
2022/09/27 08:45:11;;;;;;;0.50;0.50;;;;;;;19.47;33.61;100032.53;4720845;30;20035;-83
2022/09/27 08:47:59;;;;;;;0.95;0.45;;;;;;;19.68;33.67;100066.09;4755172;30;20035;-83
2022/09/27 08:50:34;;;;;;;1.48;0.50;;;;;;;19.52;33.60;100035.28;4725989;30;20032;-83
2022/09/27 08:53:21;;;;;;;0.60;0.40;;;;;;;19.75;33.60;100066.72;4721577;30;20048;-84
2022/09/27 08:55:49;;;;;;;0.55;0.55;;;;;;;19.76;33.44;100072.97;4754401;30;20047;-83
2022/09/27 08:58:27;;;;;;;0.35;0.35;;;;;;;19.75;33.53;100063.19;4725980;30;20036;-83
2022/09/27 09:00:54;;;;;;;1.02;0.50;;;;;;;19.46;33.55;100023.56;4764455;30;20490;-83
2022/09/27 09:03:25;;;;;;;0.50;0.50;;;;;;;19.72;33.48;100052.84;4725626;30;20036;-83
2022/09/27 09:06:07;;;;;;;0.98;0.68;;;;;;;19.69;33.64;100046.84;4722969;30;20545;-83
2022/09/27 09:09:11;;;;;;;0.40;0.40;;;;;;;19.63;33.50;100031.59;4726587;30;20051;-83
2022/09/27 09:14:55;;;;;;;0.50;0.50;;;;;;;19.79;33.54;100053.47;4765006;30;20059;-84
2022/09/27 09:17:26;;;;;;;1.65;0.43;;;;;;;19.80;33.55;100055.09;4749188;30;20046;-83
2022/09/27 09:19:55;;;;;;;0.50;0.50;;;;;;;19.82;33.67;100052.97;4750921;30;20390;-83
2022/09/27 09:22:39;;;;;;;0.77;0.52;;;;;;;19.86;33.71;100054.06;4751159;30;20040;-83
2022/09/27 09:25:08;;;;;;;0.63;0.50;;;;;;;19.84;33.60;100048.09;4756899;30;20471;-83
2022/09/27 09:27:37;;;;;;;0.40;0.40;;;;;;;19.89;33.53;100067.94;4742900;30;20043;-83
2022/09/27 09:30:18;;;;;;;1.50;0.60;;;;;;;19.91;33.66;100050.59;4735026;30;21670;-84
2022/09/27 09:33:07;;;;;;;0.40;0.40;;;;;;;19.75;33.76;100027.94;4763195;30;20097;-83
2022/09/27 09:35:51;;;;;;;0.47;0.47;;;;;;;19.66;33.51;100016.72;4734526;30;20370;-83
2022/09/27 09:38:38;;;;;;;0.60;0.60;;;;;;;19.92;33.58;100061.19;4746549;30;20044;-82
2022/09/27 09:41:30;;;;;;;0.95;0.65;;;;;;;19.97;33.57;100055.81;4747822;30;20067;-83
2022/09/27 09:44:05;;;;;;;0.73;0.55;;;;;;;19.95;33.47;100049.00;4754643;30;20059;-83
2022/09/27 09:46:36;;;;;;;0.50;0.50;;;;;;;19.95;33.45;100046.28;4757911;30;20470;-83
2022/09/27 09:49:26;;;;;;;0.50;0.50;;;;;;;20.00;33.66;100049.84;4724751;30;20047;-83
2022/09/27 09:51:58;;;;;;;4.15;0.68;;;;;;;19.86;33.68;100026.97;4747289;30;20043;-83
2022/09/27 09:54:26;;;;;;;0.45;0.40;;;;;;;20.03;33.67;100052.06;4729603;30;20032;-83
2022/09/27 09:57:16;;;;;;;0.52;0.50;;;;;;;20.05;33.66;100049.09;4736559;30;20042;-84
2022/09/27 09:59:48;;;;;;;0.40;0.40;;;;;;;19.84;33.59;100015.56;4736494;30;20125;-84
2022/09/27 10:02:34;;;;;;;0.32;0.32;;;;;;;20.05;33.58;100055.31;4723581;30;20375;-84
2022/09/27 10:05:00;;;;;;;1.77;0.50;;;;;;;19.96;33.64;100040.59;4745967;30;20744;-84
2022/09/27 10:07:26;;;;;;;0.50;0.50;;;;;;;20.00;33.48;100036.28;4719749;30;20071;-84
2022/09/27 10:09:52;;;;;;;0.80;0.60;;;;;;;19.89;33.47;100018.31;4720211;30;20033;-84
2022/09/27 10:12:18;;;;;;;1.65;0.73;;;;;;;19.95;33.75;100027.31;4719333;30;20028;-84
2022/09/27 10:14:45;;;;;;;0.68;0.60;;;;;;;19.83;33.65;100005.78;4719944;30;20630;-83
2022/09/27 10:17:13;;;;;;;1.30;0.50;;;;;;;20.08;33.54;100043.16;4734087;30;20032;-84
2022/09/27 10:19:39;;;;;;;1.30;0.43;;;;;;;20.02;33.64;100023.31;4735092;30;20390;-83
2022/09/27 10:22:27;;;;;;;0.40;0.40;;;;;;;19.97;33.53;100012.44;4719906;30;20036;-83
2022/09/27 10:25:05;;;;;;;0.40;0.40;;;;;;;20.15;33.59;100054.59;4719312;30;20040;-84
2022/09/27 10:27:40;;;;;;;0.68;0.50;;;;;;;19.92;33.65;100012.38;4736172;30;20032;-84
2022/09/27 10:30:06;;;;;;;0.40;0.40;;;;;;;19.87;33.71;100023.19;4746971;30;20047;-84
2022/09/27 10:32:35;;;;;;;0.65;0.50;;;;;;;19.95;33.65;100024.59;4719812;30;20028;-84
2022/09/27 10:35:20;;;;;;;0.57;0.50;;;;;;;20.20;33.70;100051.13;4733847;30;20491;-84
2022/09/27 10:37:46;;;;;;;0.52;0.50;;;;;;;20.05;33.46;100044.47;4744797;30;20123;-84
2022/09/27 10:40:24;;;;;;;0.75;0.50;;;;;;;20.23;33.62;100051.41;4732735;30;20110;-84
2022/09/27 10:42:49;;;;;;;0.60;0.52;;;;;;;20.04;33.60;100023.88;4718047;30;20036;-84
2022/09/27 10:45:30;;;;;;;2.13;0.57;;;;;;;20.13;33.58;100054.03;4732718;30;20039;-84
2022/09/27 10:47:56;;;;;;;0.98;0.60;;;;;;;20.20;33.71;100053.81;4732787;30;20118;-84
2022/09/27 10:50:40;;;;;;;0.30;0.30;;;;;;;20.10;33.49;100041.00;4732784;30;20035;-84
2022/09/27 10:53:15;;;;;;;;;;;;;;;20.32;33.54;100056.38;4717659;30;20102;-84
2022/09/27 10:55:41;;;;;;;0.55;0.40;;;;;;;20.06;33.60;100019.00;4747705;30;20041;-84
2022/09/27 10:58:33;;;;;;;0.82;0.40;;;;;;;19.99;33.69;99996.72;4719541;30;20135;-84
2022/09/27 11:01:02;;;;;;;0.35;0.35;;;;;;;20.32;33.50;100057.16;4748594;30;20067;-84
2022/09/27 11:03:32;;;;;;;1.77;0.40;;;;;;;20.09;33.60;100028.50;4736100;30;20054;-84
2022/09/27 11:05:58;;;;;;;0.77;0.50;;;;;;;20.38;33.65;100058.00;4750588;30;20395;-85
2022/09/27 11:08:31;;;;;;;2.05;0.40;;;;;;;20.22;33.68;100035.38;4741408;30;20085;-84
2022/09/27 11:11:24;;;;;;;0.40;0.40;;;;;;;20.34;33.74;100056.91;4736319;30;20035;-84
2022/09/27 11:13:58;;;;;;;2.67;0.40;;;;;;;20.26;33.55;100039.22;4747373;30;20384;-84
2022/09/27 11:16:38;;;;;;;0.50;0.50;;;;;;;20.19;33.75;100034.00;4765729;30;20031;-84
2022/09/27 11:19:39;;;;;;;0.50;0.50;;;;;;;20.40;33.60;100064.84;4730048;30;20046;-84
2022/09/27 11:22:07;;;;;;;0.50;0.50;;;;;;;20.42;33.47;100067.25;4753301;30;20119;-84
2022/09/27 11:24:39;;;;;;;0.40;0.40;;;;;;;20.41;33.56;100066.44;4754327;30;20368;-83
2022/09/27 11:27:34;;;;;;;0.63;0.40;;;;;;;20.39;33.73;100068.63;4740782;30;20068;-83
2022/09/27 11:30:10;;;;;;;;;;;;;;;20.42;33.71;100078.97;4750775;30;20044;-82
2022/09/27 11:33:14;;;;;;;0.30;0.30;;;;;;;20.42;33.67;100064.53;4742624;30;20446;-83
2022/09/27 11:35:46;;;;;;;0.60;0.50;;;;;;;20.17;33.83;100025.31;4751474;30;20039;-84
2022/09/27 11:38:26;;;;;;;0.55;0.55;;;;;;;20.25;33.72;100030.25;4762551;30;20032;-84
2022/09/27 11:41:23;;;;;;;1.05;0.40;;;;;;;20.43;33.71;100056.16;4745736;30;20075;-84
2022/09/27 11:44:01;;;;;;;0.80;0.40;;;;;;;20.44;33.58;100060.50;4764459;30;20038;-83
2022/09/27 11:46:34;;;;;;;1.10;0.30;;;;;;;20.29;33.53;100027.03;4738222;30;20549;-83
2022/09/27 11:49:25;;;;;;;1.00;0.50;;;;;;;20.48;33.52;100060.00;4730212;30;20036;-84
2022/09/27 11:52:09;;;;;;;0.40;0.40;;;;;;;20.47;33.64;100056.44;4748830;30;21520;-83
2022/09/27 11:54:38;;;;;;;;;;;;;;;20.51;33.65;100056.75;4766650;30;20094;-82
2022/09/27 11:57:25;;;;;;;0.55;0.35;;;;;;;20.33;33.69;100034.38;4766808;30;19949;-83